Erzurum, Turkey
Current Conditions -  °F | °C
As of 4:20 PM on Friday 28 Nov 2014 (Local Time) from LTCE Reporting Station
Broken Clouds Broken Clouds  
Wind Chill: 32°   Ceiling: 8000
Heat Index: 36°   Visibility: 6mi
Dew Point: 27°   Wind: 5mph
Humidity: 70%   Direction: 290°WNW
Pressure: 30.15"   Gusts: NA
Location:  39.91°N, 41.29°E
Report Text: LTCE 281320Z 29004KT 9999 SCT030 BKN080 02/M03 Q1021 NOSIG
Loading
Personal Weather Stations






























Interactive Weather Map New forecast layout! Learn more

10-Day Weather Forecast

Advertisements
Track Severe Weather on mobile